createdAt,value
2023-03-06T00:01:10.691Z,4.04
2023-03-06T00:03:38.427Z,4.01
2023-03-06T00:06:06.385Z,4.01
2023-03-06T00:08:34.130Z,3.85
2023-03-06T00:11:02.168Z,3.93
2023-03-06T00:13:31.461Z,4.03
2023-03-06T00:16:03.567Z,4.11
2023-03-06T00:18:31.311Z,4.17
2023-03-06T00:20:59.030Z,3.98
2023-03-06T00:23:27.866Z,3.96
2023-03-06T00:25:55.578Z,4.08
2023-03-06T00:28:23.626Z,4.01
2023-03-06T00:30:51.672Z,3.97
2023-03-06T00:33:19.413Z,3.98
2023-03-06T00:35:47.208Z,3.98
2023-03-06T00:38:14.905Z,4.04
2023-03-06T00:40:42.633Z,4.10
2023-03-06T00:43:11.046Z,4.15
2023-03-06T00:45:39.206Z,4.03
2023-03-06T00:48:09.292Z,4.06
2023-03-06T00:50:36.963Z,4.03
2023-03-06T00:53:04.678Z,4.08
2023-03-06T00:55:33.597Z,4.21
2023-03-06T00:58:01.752Z,4.17
2023-03-06T01:00:29.481Z,4.13
2023-03-06T01:02:57.427Z,3.96
2023-03-06T01:05:25.250Z,3.98
2023-03-06T01:07:53.002Z,4.00
2023-03-06T01:10:20.867Z,3.97
2023-03-06T01:12:48.897Z,3.98
2023-03-06T01:15:16.524Z,3.87
2023-03-06T01:17:44.771Z,3.80
2023-03-06T01:20:15.771Z,3.79
2023-03-06T01:22:43.649Z,3.80
2023-03-06T01:25:12.813Z,3.85
2023-03-06T01:27:40.463Z,3.82
2023-03-06T01:30:12.094Z,3.77
2023-03-06T01:32:40.190Z,3.86
2023-03-06T01:35:08.783Z,3.75
2023-03-06T01:37:37.659Z,3.66
2023-03-06T01:40:06.610Z,3.69
2023-03-06T01:42:34.480Z,3.70
2023-03-06T01:45:08.491Z,3.69
2023-03-06T01:47:36.868Z,3.62
2023-03-06T01:50:10.868Z,3.63
2023-03-06T01:52:57.769Z,3.70
2023-03-06T01:55:33.986Z,3.69
2023-03-06T01:58:07.516Z,3.80
2023-03-06T02:00:35.324Z,3.87
2023-03-06T02:03:18.557Z,4.00
2023-03-06T02:05:46.900Z,3.86
2023-03-06T02:08:18.587Z,3.82
2023-03-06T02:11:04.592Z,3.77
2023-03-06T02:13:32.770Z,3.72
2023-03-06T02:16:02.006Z,3.69
2023-03-06T02:18:32.782Z,3.77
2023-03-06T02:21:06.179Z,3.72
2023-03-06T02:23:44.566Z,3.79
2023-03-06T02:26:13.624Z,3.83
2023-03-06T02:28:41.673Z,3.65
2023-03-06T02:31:18.762Z,3.70
2023-03-06T02:33:46.515Z,3.79
2023-03-06T02:36:16.722Z,3.75
2023-03-06T02:38:51.195Z,3.51
2023-03-06T02:41:20.633Z,3.54
2023-03-06T02:43:52.108Z,3.67
2023-03-06T02:46:19.984Z,3.58
2023-03-06T02:48:47.790Z,3.48
2023-03-06T02:51:15.557Z,3.52
2023-03-06T02:53:44.582Z,3.52
2023-03-06T02:56:12.527Z,3.54
2023-03-06T02:58:43.058Z,3.39
2023-03-06T03:01:11.692Z,3.43
2023-03-06T03:03:40.357Z,3.36
2023-03-06T03:06:08.913Z,3.40
2023-03-06T03:08:37.670Z,3.43
2023-03-06T03:11:06.023Z,3.38
2023-03-06T03:13:40.627Z,3.42
2023-03-06T03:16:15.495Z,3.49
2023-03-06T03:18:45.200Z,3.58
2023-03-06T03:21:14.935Z,3.60
2023-03-06T03:23:42.687Z,3.52
2023-03-06T03:26:20.169Z,3.58
2023-03-06T03:29:05.453Z,3.79
2023-03-06T03:31:33.610Z,3.69
2023-03-06T03:34:02.969Z,3.58
2023-03-06T03:36:34.316Z,3.49
2023-03-06T03:39:04.282Z,3.43
2023-03-06T03:41:32.607Z,3.42
2023-03-06T03:44:01.077Z,3.51
2023-03-06T03:46:29.215Z,3.58
2023-03-06T03:48:57.915Z,3.69
2023-03-06T03:51:25.716Z,3.63
2023-03-06T03:53:58.171Z,3.60
2023-03-06T03:56:29.016Z,3.59
2023-03-06T03:59:04.669Z,3.54
2023-03-06T04:01:39.833Z,3.54
2023-03-06T04:04:08.754Z,3.49
2023-03-06T04:06:37.836Z,3.45
2023-03-06T04:09:06.726Z,3.52
2023-03-06T04:11:36.488Z,3.59
2023-03-06T04:14:04.447Z,3.54
2023-03-06T04:16:33.372Z,3.59
2023-03-06T04:19:04.246Z,3.60
2023-03-06T04:21:33.426Z,3.69
2023-03-06T04:24:04.445Z,3.66
2023-03-06T04:26:32.789Z,3.73
2023-03-06T04:29:00.725Z,3.65
2023-03-06T04:31:29.739Z,3.79
2023-03-06T04:33:57.701Z,3.83
2023-03-06T04:36:32.936Z,3.70
2023-03-06T04:39:06.042Z,3.65
2023-03-06T04:41:35.556Z,3.67
2023-03-06T04:44:03.623Z,3.59
2023-03-06T04:46:31.979Z,3.54
2023-03-06T04:49:00.711Z,3.63
2023-03-06T04:51:28.652Z,3.49
2023-03-06T04:53:56.363Z,3.51
2023-03-06T04:56:24.190Z,3.60
2023-03-06T04:58:52.016Z,3.51
2023-03-06T05:01:19.779Z,3.35
2023-03-06T05:03:47.973Z,3.25
2023-03-06T05:06:15.751Z,3.34
2023-03-06T05:08:43.385Z,3.34
2023-03-06T05:11:11.806Z,3.29
2023-03-06T05:13:39.649Z,3.35
2023-03-06T05:16:08.392Z,3.36
2023-03-06T05:18:36.816Z,3.28
2023-03-06T05:21:05.328Z,3.24
2023-03-06T05:23:35.484Z,3.27
2023-03-06T05:26:12.890Z,3.25
2023-03-06T05:28:41.215Z,3.18
2023-03-06T05:31:09.386Z,3.38
2023-03-06T05:33:37.784Z,3.40
2023-03-06T05:36:07.352Z,3.34
2023-03-06T05:38:35.119Z,3.24
2023-03-06T05:41:02.997Z,3.21
2023-03-06T05:43:30.779Z,3.43
2023-03-06T05:46:05.678Z,3.39
2023-03-06T05:48:35.755Z,3.22
2023-03-06T05:51:04.791Z,3.27
2023-03-06T05:53:33.705Z,3.21
2023-03-06T05:56:05.299Z,3.24
2023-03-06T05:58:34.837Z,3.49
2023-03-06T06:01:11.526Z,3.58
2023-03-06T06:03:39.816Z,3.49
2023-03-06T06:06:10.258Z,3.48
2023-03-06T06:08:38.235Z,3.58
2023-03-06T06:11:07.569Z,3.49
2023-03-06T06:13:36.186Z,3.34
2023-03-06T06:16:12.998Z,3.55
2023-03-06T06:18:41.378Z,3.60
2023-03-06T06:21:11.555Z,3.56
2023-03-06T06:23:39.300Z,3.65
2023-03-06T06:26:08.897Z,3.76
2023-03-06T06:28:36.707Z,3.72
2023-03-06T06:31:12.735Z,3.76
2023-03-06T06:33:42.121Z,3.60
2023-03-06T06:36:19.179Z,3.59
2023-03-06T06:38:47.301Z,3.40
2023-03-06T06:44:10.725Z,3.40
2023-03-06T06:49:26.735Z,3.40
2023-03-06T06:51:54.530Z,3.48
2023-03-06T06:54:23.014Z,3.63
2023-03-06T06:56:50.988Z,3.60
2023-03-06T06:59:18.636Z,3.63
2023-03-06T07:01:46.360Z,3.67
2023-03-06T07:04:15.252Z,3.72
2023-03-06T07:06:43.933Z,3.67
2023-03-06T07:09:13.104Z,3.55
2023-03-06T07:11:41.509Z,3.29
2023-03-06T07:14:09.886Z,3.34
2023-03-06T07:16:37.654Z,3.43
2023-03-06T07:19:08.970Z,3.48
2023-03-06T07:21:36.619Z,3.59
2023-03-06T07:24:04.738Z,3.67
2023-03-06T07:26:34.632Z,3.77
2023-03-06T07:29:04.219Z,3.70
2023-03-06T07:31:32.538Z,4.11
2023-03-06T07:34:04.922Z,4.11
2023-03-06T07:36:34.659Z,4.13
2023-03-06T07:39:02.525Z,4.18
2023-03-06T07:41:30.411Z,4.64
2023-03-06T07:44:01.392Z,5.13
2023-03-06T07:46:29.827Z,5.58
2023-03-06T07:49:00.876Z,6.26
2023-03-06T07:51:28.696Z,7.02
2023-03-06T07:53:56.444Z,6.67
2023-03-06T07:56:24.156Z,5.75
2023-03-06T07:58:52.128Z,4.92
2023-03-06T08:01:23.699Z,4.56
2023-03-06T08:03:51.732Z,4.66
2023-03-06T08:06:25.926Z,4.75
2023-03-06T08:08:55.667Z,4.72
2023-03-06T08:11:26.521Z,4.86
2023-03-06T08:13:55.180Z,4.72
2023-03-06T08:16:25.461Z,4.59
2023-03-06T08:18:53.515Z,4.52
2023-03-06T08:21:23.964Z,4.49
2023-03-06T08:23:52.174Z,4.44
2023-03-06T08:26:33.004Z,4.37
2023-03-06T08:29:02.555Z,4.38
2023-03-06T08:31:34.026Z,4.56
2023-03-06T08:34:05.002Z,4.86
2023-03-06T08:36:33.216Z,5.20
2023-03-06T08:39:02.097Z,5.17
2023-03-06T08:41:30.746Z,5.30
2023-03-06T08:43:58.651Z,5.35
2023-03-06T08:46:28.755Z,5.47
2023-03-06T08:48:58.114Z,4.97
2023-03-06T08:51:26.733Z,4.71
2023-03-06T08:53:55.673Z,4.76
2023-03-06T08:56:27.546Z,5.09
2023-03-06T08:58:57.337Z,4.93
2023-03-06T09:01:26.918Z,4.73
2023-03-06T09:03:56.739Z,4.96
2023-03-06T09:06:27.000Z,5.03
2023-03-06T09:08:55.651Z,5.12
2023-03-06T09:11:26.294Z,5.20
2023-03-06T09:13:55.337Z,5.34
2023-03-06T09:16:23.923Z,5.13
2023-03-06T09:18:54.087Z,4.99
2023-03-06T09:21:23.955Z,5.06
2023-03-06T09:23:52.254Z,4.87
2023-03-06T09:26:21.048Z,4.90
2023-03-06T09:28:48.823Z,5.23
2023-03-06T09:31:19.807Z,5.50
2023-03-06T09:33:48.636Z,5.56
2023-03-06T09:36:21.882Z,5.69
2023-03-06T09:38:50.298Z,5.45
2023-03-06T09:41:41.826Z,5.71
2023-03-06T09:44:45.661Z,5.28
2023-03-06T09:47:38.551Z,5.38
2023-03-06T09:50:29.479Z,5.35
2023-03-06T09:53:21.959Z,5.30
2023-03-06T09:56:09.992Z,5.48
2023-03-06T09:58:46.699Z,5.40
2023-03-06T10:01:22.272Z,5.30
2023-03-06T10:04:42.021Z,5.52
2023-03-06T10:07:21.351Z,5.83
2023-03-06T10:10:06.875Z,6.09
2023-03-06T10:12:48.380Z,6.12
2023-03-06T10:15:26.927Z,6.05
2023-03-06T10:17:55.898Z,5.96
2023-03-06T10:20:28.314Z,5.95
2023-03-06T10:23:05.133Z,5.88
2023-03-06T10:25:54.730Z,5.62
2023-03-06T10:28:56.487Z,5.45
2023-03-06T10:31:27.061Z,5.35
2023-03-06T10:34:28.505Z,5.85
2023-03-06T10:37:02.626Z,5.72
2023-03-06T10:39:30.832Z,5.58
2023-03-06T10:41:58.910Z,5.51
2023-03-06T10:44:26.949Z,5.34
2023-03-06T10:46:55.184Z,5.40
2023-03-06T10:49:38.819Z,5.44
2023-03-06T10:52:20.068Z,5.35
2023-03-06T10:54:48.731Z,5.33
2023-03-06T10:57:36.678Z,5.54
2023-03-06T11:00:36.078Z,5.48
2023-03-06T11:03:21.912Z,5.61
2023-03-06T11:06:13.418Z,5.42
2023-03-06T11:08:44.216Z,5.42
2023-03-06T11:11:36.537Z,5.38
2023-03-06T11:14:16.080Z,5.44
2023-03-06T11:16:55.449Z,5.52
2023-03-06T11:19:29.547Z,5.54
2023-03-06T11:22:18.542Z,5.59
2023-03-06T11:24:53.373Z,5.69
2023-03-06T11:27:35.019Z,5.66
2023-03-06T11:30:10.446Z,5.75
2023-03-06T11:32:56.755Z,5.83
2023-03-06T11:35:49.529Z,5.82
2023-03-06T11:38:33.923Z,5.93
2023-03-06T11:41:08.265Z,5.85
2023-03-06T11:44:14.665Z,5.79
2023-03-06T11:46:48.827Z,6.02
2023-03-06T11:49:40.020Z,6.26
2023-03-06T11:52:26.154Z,6.31
2023-03-06T11:54:58.369Z,6.03
2023-03-06T11:57:38.100Z,5.81
2023-03-06T12:00:44.071Z,5.79
2023-03-06T12:03:52.868Z,6.05
2023-03-06T12:06:53.268Z,6.06
2023-03-06T12:09:46.432Z,6.26
2023-03-06T12:12:29.867Z,6.50
2023-03-06T12:15:27.074Z,6.64
2023-03-06T12:18:18.581Z,6.87
2023-03-06T12:20:58.235Z,6.75
2023-03-06T12:23:36.367Z,6.27
2023-03-06T12:26:07.042Z,6.30
2023-03-06T12:29:01.019Z,6.40
2023-03-06T12:31:37.788Z,6.42
2023-03-06T12:34:20.086Z,6.31
2023-03-06T12:36:59.615Z,6.21
2023-03-06T12:39:59.676Z,6.42
2023-03-06T12:42:49.410Z,6.48
2023-03-06T12:45:33.240Z,6.52
2023-03-06T12:48:02.666Z,6.63
2023-03-06T12:50:33.686Z,6.69
2023-03-06T12:53:06.321Z,6.27
2023-03-06T12:55:43.828Z,6.21
2023-03-06T12:58:32.281Z,6.30
2023-03-06T13:01:09.290Z,6.50
2023-03-06T13:04:05.773Z,6.47
2023-03-06T13:07:19.279Z,6.60
2023-03-06T13:10:15.636Z,6.48
2023-03-06T13:12:57.599Z,6.40
2023-03-06T13:15:46.136Z,6.29
2023-03-06T13:18:23.079Z,6.45
2023-03-06T13:20:56.275Z,6.54
2023-03-06T13:23:32.845Z,6.63
2023-03-06T13:26:31.005Z,6.40
2023-03-06T13:28:59.736Z,6.36
2023-03-06T13:31:33.524Z,6.58
2023-03-06T13:34:33.748Z,6.58
2023-03-06T13:37:23.522Z,6.77
2023-03-06T13:40:00.440Z,6.65
2023-03-06T13:42:32.919Z,6.54
2023-03-06T13:45:17.826Z,6.37
2023-03-06T13:48:22.544Z,6.55
2023-03-06T13:50:48.410Z,6.41
2023-03-06T13:53:31.064Z,6.24
2023-03-06T13:56:26.551Z,6.20
2023-03-06T13:59:30.318Z,6.27
2023-03-06T14:02:51.778Z,6.57
2023-03-06T14:05:21.397Z,6.75
2023-03-06T14:08:10.568Z,6.91
2023-03-06T14:10:39.721Z,7.12
2023-03-06T14:13:41.831Z,7.08
2023-03-06T14:16:25.228Z,6.93
2023-03-06T14:18:58.568Z,6.82
2023-03-06T14:21:48.222Z,6.79
2023-03-06T14:24:18.688Z,6.75
2023-03-06T14:26:50.500Z,6.71
2023-03-06T14:29:24.345Z,6.67
2023-03-06T14:31:55.837Z,6.82
2023-03-06T14:34:31.987Z,6.68
2023-03-06T14:37:18.980Z,6.87
2023-03-06T14:39:47.015Z,6.72
2023-03-06T14:42:24.840Z,6.77
2023-03-06T14:45:08.005Z,6.99
2023-03-06T14:47:37.093Z,6.98
2023-03-06T14:50:27.634Z,7.03
2023-03-06T14:52:59.752Z,7.03
2023-03-06T14:55:30.789Z,7.03
2023-03-06T14:58:38.930Z,6.98
2023-03-06T15:01:10.521Z,7.03
2023-03-06T15:03:50.517Z,7.23
2023-03-06T15:06:22.855Z,7.27
2023-03-06T15:09:24.315Z,7.47
2023-03-06T15:12:01.788Z,7.36
2023-03-06T15:14:42.031Z,7.22
2023-03-06T15:17:18.913Z,7.09
2023-03-06T15:19:49.735Z,7.20
2023-03-06T15:22:40.277Z,7.22
2023-03-06T15:25:22.879Z,7.19
2023-03-06T15:27:55.560Z,7.15
2023-03-06T15:30:35.976Z,7.00
2023-03-06T15:33:25.005Z,6.99
2023-03-06T15:36:18.595Z,7.05
2023-03-06T15:38:47.260Z,7.13
2023-03-06T15:41:42.279Z,7.06
2023-03-06T15:44:13.409Z,6.95
2023-03-06T15:46:41.917Z,7.12
2023-03-06T15:49:17.417Z,7.18
2023-03-06T15:51:45.623Z,7.29
2023-03-06T15:54:13.486Z,7.12
2023-03-06T15:56:44.677Z,7.12
2023-03-06T15:59:23.293Z,7.05
2023-03-06T16:01:52.108Z,7.06
2023-03-06T16:04:20.254Z,6.92
2023-03-06T16:06:48.029Z,6.79
2023-03-06T16:09:15.901Z,6.72
2023-03-06T16:11:45.507Z,6.74
2023-03-06T16:14:21.600Z,6.45
2023-03-06T16:16:50.249Z,6.20
2023-03-06T16:19:29.005Z,6.29
2023-03-06T16:21:59.210Z,6.31
2023-03-06T16:24:26.877Z,6.37
2023-03-06T16:26:55.721Z,6.40
2023-03-06T16:29:26.437Z,6.42
2023-03-06T16:31:56.819Z,6.48
2023-03-06T16:34:25.434Z,6.27
2023-03-06T16:36:53.863Z,6.33
2023-03-06T16:39:23.830Z,6.42
2023-03-06T16:41:52.731Z,6.27
2023-03-06T16:44:21.461Z,6.33
2023-03-06T16:46:50.485Z,6.41
2023-03-06T16:49:23.978Z,6.41
2023-03-06T16:51:53.219Z,6.41
2023-03-06T16:54:23.258Z,6.44
2023-03-06T16:56:50.996Z,6.42
2023-03-06T16:59:18.743Z,6.45
2023-03-06T17:01:46.558Z,6.37
2023-03-06T17:04:14.421Z,6.45
2023-03-06T17:06:43.165Z,6.37
2023-03-06T17:09:11.355Z,6.41
2023-03-06T17:11:39.490Z,6.37
2023-03-06T17:14:07.406Z,6.34
2023-03-06T17:16:39.211Z,6.45
2023-03-06T17:19:07.527Z,6.45
2023-03-06T17:21:37.466Z,6.29
2023-03-06T17:24:05.427Z,6.09
2023-03-06T17:26:34.268Z,6.03
2023-03-06T17:29:02.228Z,5.96
2023-03-06T17:31:30.784Z,6.07
2023-03-06T17:34:02.037Z,6.10
2023-03-06T17:36:34.463Z,6.10
2023-03-06T17:39:03.965Z,6.24
2023-03-06T17:41:34.248Z,6.21
2023-03-06T17:44:02.246Z,5.99
2023-03-06T17:46:34.630Z,6.05
2023-03-06T17:49:02.602Z,6.20
2023-03-06T17:51:30.829Z,6.17
2023-03-06T17:53:58.851Z,6.17
2023-03-06T17:56:27.520Z,6.06
2023-03-06T17:58:55.559Z,6.14
2023-03-06T18:01:30.583Z,6.17
2023-03-06T18:03:59.182Z,6.10
2023-03-06T18:06:30.272Z,6.07
2023-03-06T18:08:59.383Z,6.12
2023-03-06T18:11:27.371Z,5.99
2023-03-06T18:13:55.347Z,5.69
2023-03-06T18:16:25.443Z,5.66
2023-03-06T18:18:55.125Z,5.75
2023-03-06T18:21:24.811Z,5.71
2023-03-06T18:23:52.926Z,5.73
2023-03-06T18:26:24.016Z,5.75
2023-03-06T18:28:57.594Z,5.83
2023-03-06T18:31:28.481Z,5.76
2023-03-06T18:33:59.642Z,5.59
2023-03-06T18:36:30.789Z,5.66
2023-03-06T18:39:01.116Z,5.62
2023-03-06T18:41:28.822Z,5.54
2023-03-06T18:43:59.735Z,5.55
2023-03-06T18:46:32.360Z,5.63
2023-03-06T18:49:00.342Z,5.56
2023-03-06T18:51:28.747Z,5.51
2023-03-06T18:54:02.195Z,5.45
2023-03-06T18:56:30.017Z,5.52
2023-03-06T18:59:03.534Z,5.52
2023-03-06T19:01:32.128Z,5.68
2023-03-06T19:04:02.486Z,5.59
2023-03-06T19:06:30.826Z,5.69
2023-03-06T19:08:58.948Z,5.75
2023-03-06T19:11:27.236Z,5.63
2023-03-06T19:13:55.592Z,5.40
2023-03-06T19:16:27.243Z,5.52
2023-03-06T19:18:56.036Z,5.47
2023-03-06T19:21:26.615Z,5.35
2023-03-06T19:23:54.989Z,5.17
2023-03-06T19:26:23.294Z,5.40
2023-03-06T19:28:52.989Z,5.41
2023-03-06T19:31:26.740Z,5.33
2023-03-06T19:33:59.612Z,5.37
2023-03-06T19:36:33.550Z,5.14
2023-03-06T19:39:04.438Z,5.26
2023-03-06T19:41:35.542Z,5.13
2023-03-06T19:44:05.755Z,5.31
2023-03-06T19:46:34.567Z,5.38
2023-03-06T19:49:11.821Z,5.21
2023-03-06T19:51:39.947Z,4.96
2023-03-06T19:54:07.670Z,4.99
2023-03-06T19:56:35.334Z,4.94
2023-03-06T19:59:03.595Z,4.87
2023-03-06T20:01:31.798Z,5.00
2023-03-06T20:04:02.786Z,4.83
2023-03-06T20:06:39.033Z,4.68
2023-03-06T20:09:09.303Z,4.68
2023-03-06T20:11:37.690Z,4.80
2023-03-06T20:14:07.651Z,4.71
2023-03-06T20:16:36.134Z,4.46
2023-03-06T20:19:04.336Z,4.45
2023-03-06T20:21:37.713Z,4.48
2023-03-06T20:24:07.241Z,4.49
2023-03-06T20:26:38.674Z,4.65
2023-03-06T20:29:06.406Z,4.79
2023-03-06T20:31:34.474Z,4.62
2023-03-06T20:34:03.133Z,4.72
2023-03-06T20:36:35.507Z,4.40
2023-03-06T20:39:09.035Z,4.44
2023-03-06T20:41:37.856Z,4.33
2023-03-06T20:44:07.520Z,4.25
2023-03-06T20:46:35.454Z,4.40
2023-03-06T20:49:03.749Z,4.40
2023-03-06T20:51:33.949Z,4.61
2023-03-06T20:54:03.347Z,4.73
2023-03-06T20:56:33.184Z,4.76
2023-03-06T20:59:07.185Z,4.56
2023-03-06T21:01:39.225Z,4.55
2023-03-06T21:04:07.727Z,4.54
2023-03-06T21:06:36.704Z,4.24
2023-03-06T21:09:06.784Z,4.38
2023-03-06T21:11:35.263Z,4.56
2023-03-06T21:14:03.440Z,4.40
2023-03-06T21:16:31.878Z,4.52
2023-03-06T21:19:02.777Z,4.62
2023-03-06T21:21:33.068Z,4.55
2023-03-06T21:24:02.382Z,4.72
2023-03-06T21:26:33.970Z,4.66
2023-03-06T21:29:03.639Z,4.75
2023-03-06T21:31:33.501Z,4.87
2023-03-06T21:34:04.603Z,4.92
2023-03-06T21:36:35.564Z,4.69
2023-03-06T21:39:06.480Z,4.80
2023-03-06T21:41:38.262Z,4.58
2023-03-06T21:44:06.857Z,4.49
2023-03-06T21:46:35.149Z,4.46
2023-03-06T21:49:04.847Z,4.41
2023-03-06T21:51:33.173Z,4.31
2023-03-06T21:54:02.313Z,4.34
2023-03-06T21:56:29.978Z,4.54
2023-03-06T21:59:01.054Z,4.37
2023-03-06T22:01:30.321Z,4.24
2023-03-06T22:04:00.011Z,4.28
2023-03-06T22:06:33.922Z,4.42
2023-03-06T22:09:02.438Z,4.42
2023-03-06T22:11:34.270Z,4.21
2023-03-06T22:14:02.343Z,4.38
2023-03-06T22:16:30.653Z,4.04
2023-03-06T22:18:58.775Z,4.14
2023-03-06T22:21:26.704Z,4.14
2023-03-06T22:24:00.436Z,4.24
2023-03-06T22:26:29.855Z,4.15
2023-03-06T22:28:58.195Z,4.10
2023-03-06T22:31:28.744Z,4.08
2023-03-06T22:33:58.867Z,4.24
2023-03-06T22:36:28.354Z,4.14
2023-03-06T22:38:59.155Z,3.98
2023-03-06T22:41:27.510Z,3.86
2023-03-06T22:44:00.640Z,3.96
2023-03-06T22:46:29.764Z,4.15
2023-03-06T22:49:01.661Z,4.11
2023-03-06T22:51:29.768Z,3.91
2023-03-06T22:53:58.216Z,3.89
2023-03-06T22:56:26.622Z,3.94
2023-03-06T22:58:54.504Z,4.00
2023-03-06T23:01:29.106Z,3.76
2023-03-06T23:04:00.286Z,3.93
2023-03-06T23:06:34.069Z,4.04
2023-03-06T23:09:20.546Z,3.94
2023-03-06T23:12:09.229Z,3.79
2023-03-06T23:14:55.718Z,3.89
2023-03-06T23:17:42.246Z,4.06
2023-03-06T23:20:28.503Z,3.86
2023-03-06T23:23:14.843Z,3.90
2023-03-06T23:25:43.615Z,3.94
2023-03-06T23:28:12.515Z,3.63
2023-03-06T23:30:41.527Z,3.56
2023-03-06T23:33:09.365Z,3.76
2023-03-06T23:35:39.062Z,3.70
2023-03-06T23:38:07.318Z,3.75
2023-03-06T23:40:36.832Z,3.73
2023-03-06T23:43:05.023Z,3.91
2023-03-06T23:45:33.023Z,4.13
2023-03-06T23:48:00.812Z,4.13
2023-03-06T23:50:28.621Z,4.18
2023-03-06T23:52:56.734Z,4.10
2023-03-06T23:55:24.540Z,4.15
2023-03-06T23:57:52.434Z,4.01
